Time;durP1;ratioP1;P1;durP2;ratioP2;P2;SDS_P1;SDS_P2;PMS_P1;PMS_P2;Temp;Humidity;BMP_temperature;BMP_pressure;BME280_temperature;BME280_humidity;BME280_pressure;Samples;Min_cycle;Max_cycle;Signal;HPM_P1;HPM_P2
2023/12/27 00:01:37;;;;;;;8.00;1.35;;;;;;;2.63;100.00;101561.53;4992445;28;20240;-40
2023/12/27 00:04:02;;;;;;;10.18;1.40;;;;;;;2.67;100.00;101569.47;4995649;28;20205;-40
2023/12/27 00:06:28;;;;;;;7.32;1.42;;;;;;;2.66;100.00;101565.03;4991587;28;20185;-44
2023/12/27 00:08:54;;;;;;;6.47;1.50;;;;;;;2.70;100.00;101580.97;5001110;28;20181;-40
2023/12/27 00:11:20;;;;;;;9.50;1.33;;;;;;;2.64;100.00;101576.50;4998481;28;20670;-38
2023/12/27 00:13:45;;;;;;;11.77;1.45;;;;;;;2.65;100.00;101573.00;4999163;28;20209;-42
2023/12/27 00:16:11;;;;;;;8.13;1.50;;;;;;;2.62;100.00;101572.97;4997679;28;20184;-39
2023/12/27 00:18:37;;;;;;;9.75;1.60;;;;;;;2.64;100.00;101581.78;4992714;28;20202;-38
2023/12/27 00:21:03;;;;;;;10.27;1.45;;;;;;;2.68;100.00;101583.59;4992891;28;20227;-40
2023/12/27 00:23:29;;;;;;;7.25;1.88;;;;;;;2.75;100.00;101577.44;4994129;28;20216;-41
2023/12/27 00:25:55;;;;;;;10.40;1.63;;;;;;;2.67;100.00;101585.34;4998512;28;20271;-40
2023/12/27 00:28:20;;;;;;;11.95;2.03;;;;;;;2.68;100.00;101595.06;4988989;28;20663;-40
2023/12/27 00:30:48;;;;;;;12.85;2.63;;;;;;;2.73;100.00;101587.13;5011864;28;20196;-40
2023/12/27 00:33:18;;;;;;;11.65;1.42;;;;;;;2.72;100.00;101593.31;4993127;28;20213;-41
2023/12/27 00:35:44;;;;;;;10.88;1.60;;;;;;;2.73;100.00;101592.44;4990260;28;20189;-39
2023/12/27 00:38:10;;;;;;;10.35;1.50;;;;;;;2.81;100.00;101589.84;4990126;28;20241;-42
2023/12/27 00:40:35;;;;;;;11.95;2.22;;;;;;;2.74;100.00;101604.81;4987727;28;20189;-42
2023/12/27 00:43:01;;;;;;;7.20;1.60;;;;;;;2.71;100.00;101602.13;4993796;28;20271;-39
2023/12/27 00:45:27;;;;;;;13.57;1.67;;;;;;;2.74;100.00;101614.50;4997606;28;20216;-40
2023/12/27 00:47:52;;;;;;;11.07;1.90;;;;;;;2.84;100.00;101618.97;4987169;28;20186;-40
2023/12/27 00:50:19;;;;;;;13.93;1.52;;;;;;;2.74;100.00;101625.97;4994388;28;20192;-41
2023/12/27 00:52:44;;;;;;;6.93;1.85;;;;;;;2.79;100.00;101629.53;4987742;28;20250;-40
2023/12/27 00:55:10;;;;;;;11.65;1.67;;;;;;;2.74;100.00;101635.69;4986709;28;20189;-38
2023/12/27 00:57:35;;;;;;;12.45;2.05;;;;;;;2.79;100.00;101631.28;4991523;28;20230;-42
2023/12/27 01:00:01;;;;;;;13.13;1.88;;;;;;;2.81;100.00;101634.84;4989785;28;20312;-44
2023/12/27 01:02:26;;;;;;;14.73;3.22;;;;;;;2.81;100.00;101637.47;4992073;28;20730;-39
2023/12/27 01:04:55;;;;;;;10.25;2.38;;;;;;;2.81;100.00;101648.94;4990553;28;20555;-39
2023/12/27 01:07:21;;;;;;;5.80;1.80;;;;;;;2.76;100.00;101653.31;4985216;28;20189;-40
2023/12/27 01:09:47;;;;;;;8.00;2.13;;;;;;;2.79;100.00;101639.22;4992210;28;20187;-40
2023/12/27 01:12:12;;;;;;;11.68;1.90;;;;;;;2.82;100.00;101648.09;4998631;28;20292;-44
2023/12/27 01:14:38;;;;;;;14.43;1.90;;;;;;;2.77;100.00;101644.50;4994528;28;20185;-40
2023/12/27 01:17:03;;;;;;;13.60;2.30;;;;;;;2.82;100.00;101649.81;4990149;28;20182;-41
2023/12/27 01:19:29;;;;;;;12.10;2.03;;;;;;;2.75;100.00;101648.91;4988121;28;20552;-40
2023/12/27 01:21:54;;;;;;;15.27;2.08;;;;;;;2.75;100.00;101659.47;4990629;28;20254;-41
2023/12/27 01:24:20;;;;;;;12.82;1.98;;;;;;;2.79;100.00;101665.69;4994514;28;20189;-40
2023/12/27 01:26:45;;;;;;;13.93;2.20;;;;;;;2.82;100.00;101657.75;4985222;28;20197;-40
2023/12/27 01:29:11;;;;;;;9.00;1.60;;;;;;;2.84;100.00;101664.88;5005611;28;20233;-38
2023/12/27 01:31:37;;;;;;;15.07;2.65;;;;;;;2.80;100.00;101681.59;4988682;28;20194;-38
2023/12/27 01:34:09;;;;;;;12.15;1.92;;;;;;;2.85;100.00;101682.50;5027422;28;20570;-41
2023/12/27 01:36:34;;;;;;;18.60;2.13;;;;;;;2.89;100.00;101673.72;5015494;28;20573;-41
2023/12/27 01:39:01;;;;;;;9.73;1.98;;;;;;;2.98;100.00;101693.19;5013257;28;20190;-40
2023/12/27 01:41:26;;;;;;;17.73;3.22;;;;;;;2.96;100.00;101676.41;5012560;28;20188;-43
2023/12/27 01:43:52;;;;;;;14.73;2.40;;;;;;;2.92;100.00;101683.41;5014199;28;20207;-42
2023/12/27 01:46:18;;;;;;;14.63;2.15;;;;;;;2.92;100.00;101683.41;5010684;28;20209;-43
2023/12/27 01:48:44;;;;;;;11.38;1.90;;;;;;;2.83;100.00;101688.66;5016510;28;20206;-41
2023/12/27 01:51:12;;;;;;;17.75;2.13;;;;;;;2.89;100.00;101686.06;5018017;28;20655;-45
2023/12/27 01:53:38;;;;;;;15.73;2.30;;;;;;;2.95;100.00;101686.13;5016882;28;20208;-42
2023/12/27 01:56:04;;;;;;;16.48;2.20;;;;;;;2.81;100.00;101685.13;5012825;28;20216;-44
2023/12/27 01:58:30;;;;;;;17.50;2.40;;;;;;;2.84;100.00;101691.31;5012945;28;20218;-41
2023/12/27 02:00:57;;;;;;;13.60;2.70;;;;;;;2.79;100.00;101687.75;5016255;28;20664;-43
2023/12/27 02:03:23;;;;;;;16.38;2.47;;;;;;;2.89;100.00;101684.28;5019563;28;20212;-43
2023/12/27 02:05:51;;;;;;;18.85;2.15;;;;;;;2.82;100.00;101686.88;5019218;28;20307;-42
2023/12/27 02:08:18;;;;;;;14.00;2.60;;;;;;;2.78;100.00;101691.28;5013308;28;20199;-42
2023/12/27 02:10:44;;;;;;;19.00;3.03;;;;;;;2.74;100.00;101689.47;5015314;28;20192;-44
2023/12/27 02:13:09;;;;;;;18.55;2.40;;;;;;;2.67;100.00;101685.91;5016837;28;20205;-43
2023/12/27 02:15:35;;;;;;;17.52;2.38;;;;;;;2.71;100.00;101688.56;5012023;28;20390;-44
2023/12/27 02:18:05;;;;;;;18.13;2.30;;;;;;;2.71;100.00;101689.44;5013666;28;20191;-41
2023/12/27 02:20:32;;;;;;;13.70;2.80;;;;;;;2.72;100.00;101688.56;5013336;28;20196;-41
2023/12/27 02:23:01;;;;;;;15.27;3.13;;;;;;;2.68;100.00;101695.59;5012650;28;20219;-41
2023/12/27 02:25:27;;;;;;;16.55;2.10;;;;;;;2.62;100.00;101686.72;5014216;28;20188;-43
2023/12/27 02:27:53;;;;;;;14.50;2.67;;;;;;;2.59;100.00;101690.22;5012625;28;20190;-40
2023/12/27 02:30:20;;;;;;;15.18;2.75;;;;;;;2.57;100.00;101704.31;5009012;28;20181;-43
2023/12/27 02:32:46;;;;;;;22.50;3.97;;;;;;;2.54;100.00;101707.84;5015928;28;20204;-40
2023/12/27 02:35:12;;;;;;;14.57;2.50;;;;;;;2.53;100.00;101705.16;5011311;28;20172;-42
2023/12/27 02:37:37;;;;;;;18.98;2.63;;;;;;;2.53;100.00;101703.41;5013752;28;20218;-44
2023/12/27 02:40:03;;;;;;;13.32;2.03;;;;;;;2.61;100.00;101708.78;5014097;28;20635;-43
2023/12/27 02:42:32;;;;;;;16.80;2.22;;;;;;;2.56;100.00;101721.06;5014104;28;20246;-43
2023/12/27 02:44:58;;;;;;;20.63;2.92;;;;;;;2.61;100.00;101722.00;4999363;28;20206;-42
2023/12/27 02:47:23;;;;;;;18.95;2.83;;;;;;;2.61;100.00;101727.28;5001590;28;20181;-40
2023/12/27 02:49:49;;;;;;;19.55;2.50;;;;;;;2.70;100.00;101735.31;5000900;28;20211;-40
2023/12/27 02:52:14;;;;;;;11.35;1.98;;;;;;;2.71;100.00;101731.75;4999660;28;20208;-42
2023/12/27 02:54:40;;;;;;;18.00;2.33;;;;;;;2.70;100.00;101740.59;5004551;28;20493;-41
2023/12/27 02:57:06;;;;;;;16.75;2.58;;;;;;;2.68;100.00;101753.78;4999711;28;20182;-41
2023/12/27 02:59:32;;;;;;;20.08;2.63;;;;;;;2.72;100.00;101738.84;5003209;28;20184;-45
2023/12/27 03:01:57;;;;;;;15.27;2.45;;;;;;;2.72;100.00;101744.13;4999122;28;20200;-41
2023/12/27 03:04:23;;;;;;;21.95;2.28;;;;;;;2.67;100.00;101745.88;4998977;28;20188;-44
2023/12/27 03:06:50;;;;;;;10.98;2.25;;;;;;;2.66;100.00;101744.97;5003262;28;20179;-45
2023/12/27 03:09:15;;;;;;;12.25;2.00;;;;;;;2.57;100.00;101741.34;4996879;28;20192;-41
2023/12/27 03:11:41;;;;;;;16.58;2.53;;;;;;;2.58;100.00;101743.13;4999347;28;20558;-40
2023/12/27 03:14:06;;;;;;;23.13;2.95;;;;;;;2.53;100.00;101744.84;5001522;28;20208;-42
2023/12/27 03:16:32;;;;;;;18.08;2.35;;;;;;;2.46;100.00;101742.13;4995907;28;20276;-41
2023/12/27 03:18:59;;;;;;;10.48;1.95;;;;;;;2.50;100.00;101748.34;4993819;28;20227;-41
2023/12/27 03:21:26;;;;;;;14.48;2.25;;;;;;;2.46;100.00;101744.78;4992322;28;20610;-41
2023/12/27 03:23:51;;;;;;;11.18;2.10;;;;;;;2.46;100.00;101746.53;4993562;28;20264;-43
2023/12/27 03:26:17;;;;;;;15.15;2.13;;;;;;;2.43;100.00;101757.09;4993820;28;20620;-39
2023/12/27 03:28:44;;;;;;;19.05;2.53;;;;;;;2.41;100.00;101751.78;4993507;28;20169;-43
2023/12/27 03:31:09;;;;;;;17.52;2.60;;;;;;;2.41;100.00;101765.00;4993671;28;20191;-41
2023/12/27 03:33:35;;;;;;;14.57;2.20;;;;;;;2.44;100.00;101759.75;4993279;28;20224;-39
2023/12/27 03:36:01;;;;;;;15.80;3.10;;;;;;;2.46;100.00;101757.13;4991972;28;20573;-39
2023/12/27 03:38:27;;;;;;;16.25;2.28;;;;;;;2.49;100.00;101754.50;4993223;28;20177;-40
2023/12/27 03:40:52;;;;;;;19.40;2.70;;;;;;;2.57;100.00;101759.88;4993179;28;20598;-43
2023/12/27 03:43:18;;;;;;;15.25;1.85;;;;;;;2.55;100.00;101754.56;4993537;28;20676;-43
2023/12/27 03:45:45;;;;;;;13.27;1.90;;;;;;;2.63;100.00;101759.94;4993458;28;20169;-40
2023/12/27 03:48:11;;;;;;;22.15;2.53;;;;;;;2.49;100.00;101757.13;4993150;28;20177;-43
2023/12/27 03:50:37;;;;;;;14.73;1.90;;;;;;;2.45;100.00;101765.94;4993057;28;20165;-38
2023/12/27 03:53:02;;;;;;;13.50;2.40;;;;;;;2.43;100.00;101779.13;4991475;28;20209;-45
2023/12/27 03:55:28;;;;;;;18.58;1.98;;;;;;;2.41;100.00;101775.59;4992150;28;20592;-44
2023/12/27 03:57:54;;;;;;;14.10;1.80;;;;;;;2.44;100.00;101772.97;4991277;28;20178;-43
2023/12/27 04:00:20;;;;;;;17.02;2.88;;;;;;;2.43;100.00;101789.72;4992845;28;20546;-39
2023/12/27 04:02:46;;;;;;;18.95;2.20;;;;;;;2.45;100.00;101793.28;4991397;28;20204;-42
2023/12/27 04:05:14;;;;;;;13.77;2.67;;;;;;;2.45;100.00;101790.63;4992796;28;20189;-39
2023/12/27 04:07:40;;;;;;;19.20;2.47;;;;;;;2.48;100.00;101792.41;4991422;28;20169;-43
2023/12/27 04:10:06;;;;;;;17.70;2.55;;;;;;;2.59;100.00;101800.47;4992567;28;20360;-44
2023/12/27 04:12:31;;;;;;;13.10;2.30;;;;;;;2.57;100.00;101787.22;4991050;28;20312;-41
2023/12/27 04:14:57;;;;;;;21.33;2.47;;;;;;;2.60;100.00;101804.88;4975066;28;20260;-41
2023/12/27 04:17:23;;;;;;;18.02;2.00;;;;;;;2.60;100.00;101802.22;4992491;28;20180;-42
2023/12/27 04:19:48;;;;;;;12.35;2.22;;;;;;;2.67;100.00;101804.97;4991207;28;20177;-41
2023/12/27 04:22:14;;;;;;;17.30;2.33;;;;;;;2.65;100.00;101796.13;4990961;28;20213;-39
2023/12/27 04:24:39;;;;;;;15.63;2.03;;;;;;;2.70;100.00;101798.81;4992508;28;20256;-41
2023/12/27 04:27:05;;;;;;;17.45;2.50;;;;;;;2.68;100.00;101798.78;4991350;28;20173;-38
2023/12/27 04:29:31;;;;;;;11.43;1.98;;;;;;;2.73;100.00;101797.94;4974946;28;20288;-38
2023/12/27 04:31:56;;;;;;;13.55;2.03;;;;;;;2.70;100.00;101790.88;4990509;28;20177;-39
2023/12/27 04:34:22;;;;;;;10.25;1.70;;;;;;;2.72;100.00;101791.78;4991047;28;20228;-40
2023/12/27 04:36:48;;;;;;;12.77;2.35;;;;;;;2.71;100.00;101797.91;4990763;28;20173;-41
2023/12/27 04:39:14;;;;;;;14.23;2.25;;;;;;;2.66;100.00;101787.28;4992035;28;20224;-44
2023/12/27 04:41:40;;;;;;;12.07;2.15;;;;;;;2.65;100.00;101792.59;4992053;28;20173;-40
2023/12/27 04:44:05;;;;;;;15.15;2.15;;;;;;;2.63;100.00;101775.81;4990680;28;20189;-42
2023/12/27 04:46:31;;;;;;;21.52;2.65;;;;;;;2.61;100.00;101777.56;4992343;28;20185;-40
2023/12/27 04:48:56;;;;;;;18.10;2.47;;;;;;;2.67;100.00;101782.91;4992071;28;20822;-41
2023/12/27 04:51:22;;;;;;;15.77;2.17;;;;;;;2.66;100.00;101781.13;4992225;28;20181;-39
2023/12/27 04:53:47;;;;;;;14.50;1.73;;;;;;;2.72;100.00;101783.84;4991861;28;20636;-43
2023/12/27 04:56:16;;;;;;;15.60;2.90;;;;;;;2.65;100.00;101782.88;4990729;28;20539;-41
2023/12/27 04:58:41;;;;;;;18.67;3.05;;;;;;;2.64;100.00;101777.56;4992225;28;20616;-41
2023/12/27 05:01:08;;;;;;;17.45;2.40;;;;;;;2.62;100.00;101772.28;4991925;28;20265;-42
2023/12/27 05:03:40;;;;;;;20.45;2.22;;;;;;;2.55;100.00;101777.50;4991762;28;20205;-44
2023/12/27 05:06:08;;;;;;;9.27;1.52;;;;;;;2.66;100.00;101787.28;4991725;28;20154;-39
2023/12/27 05:08:34;;;;;;;15.10;1.73;;;;;;;2.56;100.00;101796.03;4990059;28;20571;-42
2023/12/27 05:11:00;;;;;;;17.27;3.67;;;;;;;2.48;100.00;101817.09;4990383;28;20173;-41
2023/12/27 05:13:26;;;;;;;18.35;3.13;;;;;;;2.44;100.00;101807.34;4990111;28;20197;-45
2023/12/27 05:15:52;;;;;;;20.83;2.30;;;;;;;2.40;100.00;101808.19;4991803;28;20181;-40
2023/12/27 05:18:17;;;;;;;13.93;1.85;;;;;;;2.36;100.00;101802.84;4991767;28;20486;-41
2023/12/27 05:20:43;;;;;;;17.67;2.90;;;;;;;2.31;100.00;101813.38;4992216;28;20177;-39
2023/12/27 05:23:08;;;;;;;17.02;1.85;;;;;;;2.34;100.00;101817.81;4991768;28;20286;-41
2023/12/27 05:25:34;;;;;;;19.65;2.78;;;;;;;2.24;100.00;101822.09;4991665;28;20177;-40
2023/12/27 05:28:00;;;;;;;15.75;2.25;;;;;;;2.26;100.00;101821.25;4991503;28;20184;-40
2023/12/27 05:30:25;;;;;;;16.25;2.30;;;;;;;2.18;100.00;101822.03;4990112;28;20194;-41
2023/12/27 05:32:51;;;;;;;19.00;2.65;;;;;;;2.15;100.00;101819.38;4991289;28;20205;-44
2023/12/27 05:35:16;;;;;;;18.52;2.50;;;;;;;2.03;100.00;101821.00;4991908;28;20177;-42
2023/12/27 05:37:42;;;;;;;20.27;2.90;;;;;;;1.98;100.00;101829.72;4991499;28;20239;-41
2023/12/27 05:40:08;;;;;;;14.63;2.38;;;;;;;1.98;100.00;101835.88;4991560;28;20169;-41
2023/12/27 05:42:33;;;;;;;14.07;2.05;;;;;;;1.92;100.00;101833.16;4991395;28;20236;-42
2023/12/27 05:44:59;;;;;;;12.63;2.88;;;;;;;1.81;100.00;101834.75;4991581;28;20640;-45
2023/12/27 05:47:24;;;;;;;15.23;2.08;;;;;;;1.88;100.00;101841.00;4991681;28;20200;-43
2023/12/27 05:49:50;;;;;;;15.73;1.77;;;;;;;1.77;100.00;101843.50;4991654;28;20255;-40
2023/12/27 05:52:15;;;;;;;15.95;2.00;;;;;;;1.70;100.00;101842.53;4989813;28;20216;-40
2023/12/27 05:54:41;;;;;;;13.43;2.08;;;;;;;1.73;100.00;101847.88;4991381;28;20209;-41
2023/12/27 05:57:08;;;;;;;15.23;2.58;;;;;;;1.76;100.00;101862.88;4991227;28;20179;-43
2023/12/27 05:59:33;;;;;;;14.50;2.28;;;;;;;1.79;100.00;101868.19;4991287;28;20174;-40
2023/12/27 06:01:59;;;;;;;17.92;2.75;;;;;;;1.68;100.00;101861.88;4991139;28;20267;-40
2023/12/27 06:04:24;;;;;;;18.15;3.22;;;;;;;1.73;100.00;101855.81;4991166;28;20185;-41
2023/12/27 06:06:50;;;;;;;11.90;1.90;;;;;;;1.65;100.00;101871.53;4991110;28;20284;-41
2023/12/27 06:09:19;;;;;;;13.00;2.10;;;;;;;1.73;100.00;101862.81;4991195;28;20201;-39
2023/12/27 06:11:45;;;;;;;12.18;1.80;;;;;;;1.72;100.00;101866.34;4991348;28;20579;-42
2023/12/27 06:14:11;;;;;;;17.00;2.00;;;;;;;1.61;100.00;101864.41;4991164;28;20209;-41
2023/12/27 06:16:37;;;;;;;12.25;1.92;;;;;;;1.58;100.00;101869.66;4991273;28;20188;-46
2023/12/27 06:19:02;;;;;;;15.80;3.38;;;;;;;1.61;100.00;101871.47;4991876;28;20248;-45
2023/12/27 06:21:29;;;;;;;15.32;1.75;;;;;;;1.62;100.00;101870.59;4994662;28;20169;-42
2023/12/27 06:23:55;;;;;;;12.38;2.10;;;;;;;1.59;100.00;101866.13;4994770;28;20220;-41
2023/12/27 06:26:21;;;;;;;16.15;2.35;;;;;;;1.49;100.00;101868.63;4994800;28;20185;-44
2023/12/27 06:28:47;;;;;;;11.30;2.72;;;;;;;1.48;100.00;101873.00;4994788;28;20178;-42
2023/12/27 06:31:12;;;;;;;9.63;1.77;;;;;;;1.54;100.00;101881.03;4994883;28;20181;-43
2023/12/27 06:33:38;;;;;;;7.70;1.40;;;;;;;1.50;100.00;101884.50;4994500;28;20646;-42
2023/12/27 06:36:07;;;;;;;17.35;1.88;;;;;;;1.35;100.00;101881.59;4993798;28;20675;-41
2023/12/27 06:38:33;;;;;;;9.27;1.90;;;;;;;1.37;100.00;101891.31;4994440;28;20176;-40
2023/12/27 06:41:00;;;;;;;10.13;1.25;;;;;;;1.36;100.00;101891.31;4994370;28;20223;-41
2023/12/27 06:43:26;;;;;;;8.85;1.92;;;;;;;1.31;100.00;101885.06;4994786;28;20284;-40
2023/12/27 06:45:52;;;;;;;11.55;2.50;;;;;;;1.17;100.00;101874.25;4994409;28;20272;-41
2023/12/27 06:48:17;;;;;;;11.43;1.80;;;;;;;0.97;100.00;101884.47;4994480;28;20221;-42
2023/12/27 06:50:43;;;;;;;5.85;1.70;;;;;;;0.96;100.00;101886.22;4994326;28;20182;-40
2023/12/27 06:53:08;;;;;;;16.52;1.95;;;;;;;0.87;100.00;101891.31;4994276;28;20189;-42
2023/12/27 06:55:34;;;;;;;17.48;2.42;;;;;;;0.82;100.00;101891.22;4994521;28;20170;-38
2023/12/27 06:58:00;;;;;;;16.48;1.92;;;;;;;0.91;100.00;101887.88;4994246;28;20169;-41
2023/12/27 07:00:28;;;;;;;14.02;2.22;;;;;;;0.88;100.00;101892.22;4994266;28;20193;-40
2023/12/27 07:02:54;;;;;;;4.13;1.48;;;;;;;0.89;100.00;101880.81;4994164;28;20224;-40
2023/12/27 07:05:19;;;;;;;11.65;2.22;;;;;;;0.87;100.00;101891.31;4994091;28;20263;-41
2023/12/27 07:07:46;;;;;;;6.03;1.65;;;;;;;0.75;100.00;101886.72;4993951;28;20661;-43
2023/12/27 07:10:11;;;;;;;8.77;1.38;;;;;;;0.77;100.00;101892.03;4993866;28;20235;-41
2023/12/27 07:12:38;;;;;;;7.30;1.48;;;;;;;0.77;100.00;101890.28;4993904;28;20201;-40
2023/12/27 07:15:07;;;;;;;8.00;1.90;;;;;;;0.62;100.00;101903.16;4993897;28;20209;-43
2023/12/27 07:17:33;;;;;;;7.97;1.98;;;;;;;0.58;100.00;101907.47;4992730;28;20176;-41
2023/12/27 07:20:00;;;;;;;12.77;1.80;;;;;;;0.49;100.00;101902.03;4993350;28;20539;-38
2023/12/27 07:22:26;;;;;;;9.32;2.25;;;;;;;0.45;100.00;101910.72;5004706;28;20200;-41
2023/12/27 07:24:52;;;;;;;10.38;2.08;;;;;;;0.26;100.00;101904.16;5011281;28;20200;-41
2023/12/27 07:27:18;;;;;;;10.35;2.58;;;;;;;0.53;100.00;101913.53;5012703;28;20268;-42
2023/12/27 07:29:43;;;;;;;14.38;2.13;;;;;;;0.70;100.00;101917.41;5012514;28;20168;-41
2023/12/27 07:32:09;;;;;;;12.43;2.33;;;;;;;0.79;100.00;101912.28;5012556;28;20196;-40
2023/12/27 07:34:34;;;;;;;12.10;2.35;;;;;;;0.87;100.00;101907.16;5012375;28;20181;-42
2023/12/27 07:37:00;;;;;;;9.15;2.42;;;;;;;0.90;100.00;101904.59;5012737;28;20586;-38
2023/12/27 07:39:25;;;;;;;12.32;2.10;;;;;;;0.98;100.00;101912.63;5012623;28;20252;-38
2023/12/27 07:41:51;;;;;;;15.40;2.72;;;;;;;1.07;100.00;101904.88;5012560;28;21001;-40
2023/12/27 07:44:16;;;;;;;14.00;2.42;;;;;;;1.15;100.00;101905.03;5012586;28;20169;-41
2023/12/27 07:46:45;;;;;;;15.23;2.33;;;;;;;1.19;100.00;101909.50;5012818;28;20224;-40
2023/12/27 07:49:10;;;;;;;12.50;2.15;;;;;;;1.30;100.00;101920.25;5012453;28;20183;-40
2023/12/27 07:51:36;;;;;;;21.75;3.00;;;;;;;1.37;100.00;101924.75;5012624;28;20180;-40
2023/12/27 07:54:01;;;;;;;17.40;2.88;;;;;;;1.35;100.00;101915.94;5012313;28;20201;-39
2023/12/27 07:56:27;;;;;;;15.18;2.67;;;;;;;1.33;100.00;101915.00;5012330;28;20271;-40
2023/12/27 07:58:53;;;;;;;17.13;3.25;;;;;;;1.34;100.00;101920.31;5012281;28;20207;-41
2023/12/27 08:01:20;;;;;;;14.10;2.70;;;;;;;1.38;100.00;101929.19;5012294;28;20234;-41
2023/12/27 08:03:45;;;;;;;16.45;3.58;;;;;;;1.40;100.00;101932.72;5010805;28;20184;-41
2023/12/27 08:06:12;;;;;;;17.30;3.65;;;;;;;1.38;100.00;101935.38;5012171;28;20227;-40
2023/12/27 08:08:37;;;;;;;17.67;3.40;;;;;;;1.40;100.00;101940.66;5012292;28;20201;-40
2023/12/27 08:11:06;;;;;;;13.68;3.75;;;;;;;1.35;100.00;101940.56;5010691;28;20172;-42
2023/12/27 08:13:32;;;;;;;15.23;3.20;;;;;;;1.39;100.00;101944.16;5011480;28;20196;-41
2023/12/27 08:15:57;;;;;;;25.98;4.07;;;;;;;1.36;100.00;101944.13;5010200;28;20691;-39
2023/12/27 08:18:23;;;;;;;9.90;3.38;;;;;;;1.32;100.00;101944.94;5011699;28;20185;-40
2023/12/27 08:20:48;;;;;;;13.80;3.15;;;;;;;1.39;100.00;101952.09;5011954;28;20172;-40
2023/12/27 08:23:16;;;;;;;16.90;3.60;;;;;;;1.32;100.00;101956.38;5011721;28;20192;-40
2023/12/27 08:25:45;;;;;;;16.65;3.20;;;;;;;1.18;100.00;101960.50;5011930;28;20298;-40
2023/12/27 08:28:11;;;;;;;10.50;2.97;;;;;;;1.27;100.00;101946.56;5012410;28;20574;-42
2023/12/27 08:30:37;;;;;;;13.02;2.92;;;;;;;1.31;100.00;101951.97;5011624;28;20168;-44
2023/12/27 08:33:06;;;;;;;11.52;3.15;;;;;;;1.23;100.00;101962.38;5011432;28;20587;-38
2023/12/27 08:35:35;;;;;;;12.82;3.10;;;;;;;1.35;100.00;101956.41;5011513;28;20200;-40
2023/12/27 08:38:02;;;;;;;7.10;2.92;;;;;;;1.38;100.00;101950.31;5011738;28;20693;-40
2023/12/27 08:40:27;;;;;;;19.52;3.92;;;;;;;1.32;100.00;101955.50;5011790;28;20173;-38
2023/12/27 08:42:54;;;;;;;16.05;2.95;;;;;;;1.33;100.00;101957.25;5011045;28;20812;-40
2023/12/27 08:45:19;;;;;;;15.35;4.15;;;;;;;1.37;100.00;101959.09;5011473;28;20169;-39
2023/12/27 08:47:45;;;;;;;17.17;4.05;;;;;;;1.39;100.00;101966.16;5011430;28;20718;-42
2023/12/27 08:50:10;;;;;;;16.23;3.53;;;;;;;1.43;100.00;101964.47;5011252;28;20195;-41
2023/12/27 08:52:37;;;;;;;14.02;3.25;;;;;;;1.46;100.00;101958.38;5012585;28;20662;-41
2023/12/27 08:55:05;;;;;;;14.57;4.70;;;;;;;1.50;100.00;101965.47;5011330;28;20260;-39
2023/12/27 08:57:31;;;;;;;14.75;5.13;;;;;;;1.43;100.00;101954.81;5010034;28;20180;-42
2023/12/27 08:59:57;;;;;;;17.88;5.82;;;;;;;1.42;100.00;101957.41;5011326;28;20169;-41
2023/12/27 09:02:23;;;;;;;22.13;6.57;;;;;;;1.45;100.00;101957.47;5011257;28;20274;-43
2023/12/27 09:04:49;;;;;;;21.98;6.80;;;;;;;1.49;100.00;101972.53;5011158;28;20246;-41
2023/12/27 09:07:14;;;;;;;20.08;6.93;;;;;;;1.54;100.00;101973.47;5010867;28;20189;-42
2023/12/27 09:09:40;;;;;;;15.38;6.80;;;;;;;1.63;100.00;101957.78;5009962;28;20223;-41
2023/12/27 09:12:06;;;;;;;17.67;7.55;;;;;;;1.67;100.00;101960.50;5010203;28;20219;-43
2023/12/27 09:14:31;;;;;;;20.50;7.45;;;;;;;1.65;100.00;101955.19;5010808;28;20574;-40
2023/12/27 09:16:57;;;;;;;17.17;8.35;;;;;;;1.63;100.00;101968.34;5010659;28;20200;-46
2023/12/27 09:19:23;;;;;;;21.92;9.27;;;;;;;1.66;100.00;101956.94;5010843;28;20180;-42
2023/12/27 09:21:48;;;;;;;24.45;10.23;;;;;;;1.58;100.00;101953.31;5010526;28;20706;-41
2023/12/27 09:24:14;;;;;;;24.67;10.57;;;;;;;1.57;100.00;101957.66;5010422;28;20265;-40
2023/12/27 09:26:39;;;;;;;19.15;10.05;;;;;;;1.66;100.00;101970.16;5010401;28;20350;-42
2023/12/27 09:29:05;;;;;;;16.90;10.10;;;;;;;1.63;100.00;101983.31;5010274;28;20168;-40
2023/12/27 09:31:31;;;;;;;22.48;10.55;;;;;;;1.69;100.00;101983.41;5010416;28;20306;-42
2023/12/27 09:33:59;;;;;;;19.70;10.30;;;;;;;1.71;100.00;101978.19;5010118;28;20208;-41
2023/12/27 09:36:25;;;;;;;18.75;9.65;;;;;;;1.79;100.00;101969.50;5010342;28;20208;-40
2023/12/27 09:38:51;;;;;;;18.00;10.98;;;;;;;1.79;100.00;101974.78;5010011;28;20172;-42
2023/12/27 09:41:17;;;;;;;18.33;9.38;;;;;;;1.85;100.00;101969.59;5009231;28;20169;-40
2023/12/27 09:43:43;;;;;;;14.15;9.93;;;;;;;1.90;100.00;101966.13;5010334;28;20679;-43
2023/12/27 09:46:14;;;;;;;18.77;10.00;;;;;;;1.88;100.00;101971.41;5010802;28;20180;-42
2023/12/27 09:48:44;;;;;;;16.58;9.23;;;;;;;1.92;100.00;101975.84;5009881;28;20173;-41
2023/12/27 09:51:13;;;;;;;21.38;9.25;;;;;;;2.03;100.00;101976.94;5010276;28;20315;-38
2023/12/27 09:53:40;;;;;;;14.75;8.68;;;;;;;2.04;100.00;101977.81;5009905;28;20283;-44
2023/12/27 09:56:06;;;;;;;15.80;8.60;;;;;;;2.14;100.00;101968.25;5014574;28;20172;-44
2023/12/27 09:58:35;;;;;;;16.90;8.35;;;;;;;2.20;100.00;101973.63;5014595;28;20656;-42
2023/12/27 10:01:03;;;;;;;19.98;8.75;;;;;;;2.12;100.00;101965.63;5014194;28;20180;-41
2023/12/27 10:03:41;;;;;;;16.35;8.40;;;;;;;2.28;100.00;101958.78;5014069;28;20184;-40
2023/12/27 10:06:32;;;;;;;19.60;7.78;;;;;;;2.22;100.00;101946.34;5014311;28;20223;-40
2023/12/27 10:08:58;;;;;;;16.45;7.95;;;;;;;2.23;100.00;101945.50;5014058;28;20162;-42
2023/12/27 10:11:24;;;;;;;15.10;7.68;;;;;;;2.22;100.00;101951.63;5013870;28;20212;-44
2023/12/27 10:13:51;;;;;;;23.25;8.35;;;;;;;2.33;100.00;101949.16;5013999;28;20193;-40
2023/12/27 10:16:17;;;;;;;17.58;8.13;;;;;;;2.34;100.00;101937.72;5014038;28;20188;-41
2023/12/27 10:18:48;;;;;;;20.17;7.93;;;;;;;2.38;100.00;101936.88;5013818;28;20177;-43
2023/12/27 10:21:15;;;;;;;15.95;8.23;;;;;;;2.42;100.00;101929.88;5013891;28;20164;-41
2023/12/27 10:23:40;;;;;;;18.50;7.97;;;;;;;2.42;100.00;101919.28;5014120;28;20204;-41
2023/12/27 10:26:06;;;;;;;13.50;6.82;;;;;;;2.57;100.00;101919.47;5013803;28;20567;-42
2023/12/27 10:28:32;;;;;;;18.90;7.78;;;;;;;2.64;100.00;101923.09;5013686;28;20286;-42
2023/12/27 10:30:57;;;;;;;16.83;7.72;;;;;;;2.63;100.00;101931.91;5013699;28;20179;-42
2023/12/27 10:33:23;;;;;;;17.20;6.95;;;;;;;2.70;100.00;101922.28;5013399;28;20287;-42
2023/12/27 10:35:48;;;;;;;17.75;7.20;;;;;;;2.76;100.00;101920.59;5005178;28;20185;-40
2023/12/27 10:38:15;;;;;;;13.25;6.65;;;;;;;2.79;100.00;101917.09;4997463;28;20189;-42
2023/12/27 10:40:40;;;;;;;14.60;6.95;;;;;;;2.77;100.00;101914.41;4997583;28;20180;-42
2023/12/27 10:43:09;;;;;;;17.20;7.00;;;;;;;2.79;100.00;101904.75;5000993;28;20185;-40
2023/12/27 10:45:36;;;;;;;12.77;6.35;;;;;;;2.89;100.00;101901.34;4997603;28;20190;-39
2023/12/27 10:48:04;;;;;;;15.98;7.35;;;;;;;2.88;100.00;101896.88;5001577;28;20193;-44
2023/12/27 10:50:32;;;;;;;17.58;6.90;;;;;;;2.82;100.00;101891.56;5001482;28;20185;-40
2023/12/27 10:53:08;;;;;;;15.80;6.80;;;;;;;2.85;100.00;101901.28;4995293;28;20252;-40
2023/12/27 10:55:35;;;;;;;20.08;6.57;;;;;;;2.80;100.00;101892.38;5005382;28;20197;-39
2023/12/27 10:58:05;;;;;;;22.42;7.55;;;;;;;2.82;100.00;101886.28;4999098;28;20666;-40
2023/12/27 11:00:31;;;;;;;14.88;7.25;;;;;;;2.81;100.00;101883.59;4998912;28;20250;-40
2023/12/27 11:03:00;;;;;;;26.85;8.52;;;;;;;2.78;100.00;101871.22;5000556;28;20192;-38
2023/12/27 11:05:29;;;;;;;23.80;8.05;;;;;;;2.85;100.00;101864.22;4996098;28;20189;-39
2023/12/27 11:07:56;;;;;;;21.33;7.47;;;;;;;2.85;100.00;101866.88;4995407;28;20177;-39
2023/12/27 11:10:23;;;;;;;17.75;7.72;;;;;;;2.88;100.00;101870.44;4999914;28;20185;-42
2023/12/27 11:12:50;;;;;;;25.88;7.47;;;;;;;2.79;100.00;101857.09;5000653;28;20292;-38